Time;durP1;ratioP1;P1;durP2;ratioP2;P2;SDS_P1;SDS_P2;PMS_P1;PMS_P2;Temp;Humidity;BMP_temperature;BMP_pressure;BME280_temperature;BME280_humidity;BME280_pressure;Samples;Min_cycle;Max_cycle;Signal;HPM_P1;HPM_P2
2022/11/04 00:01:40;;;;;;;;;;;;;;;;;;4963831;28;19980;-58
2022/11/04 00:04:06;;;;;;;;;;;;;;;;;;4968308;28;19957;-60
2022/11/04 00:06:31;;;;;;;;;;;;;;;;;;4964366;28;20016;-57
2022/11/04 00:08:57;;;;;;;;;;;;;;;;;;4959377;28;19918;-58
2022/11/04 00:14:06;;;;;;;;;;;;;;;;;;4958858;28;19946;-57
2022/11/04 00:19:16;;;;;;;;;;;;;;;;;;4962767;28;19925;-59
2022/11/04 00:29:53;;;;;;;;;;;;;;;;;;4972126;28;20781;-57
2022/11/04 00:35:02;;;;;;;;;;;;;;;;;;4970627;28;20338;-59
2022/11/04 00:37:28;;;;;;;;;;;;;;;;;;4959265;28;19926;-60
2022/11/04 00:39:53;;;;;;;;;;;;;;;;;;4967557;28;19937;-58
2022/11/04 00:42:18;;;;;;;;;;;;;;;;;;4960696;28;19922;-59
2022/11/04 00:44:43;;;;;;;;;;;;;;;;;;4962964;28;20411;-59
2022/11/04 00:47:09;;;;;;;;;;;;;;;;;;4971474;28;19926;-60
2022/11/04 00:49:34;;;;;;;;;;;;;;;;;;4964968;28;19922;-58
2022/11/04 00:51:59;;;;;;;;;;;;;;;;;;4965612;28;19945;-58
2022/11/04 00:54:24;;;;;;;;;;;;;;;;;;4963989;28;19922;-58
2022/11/04 00:56:50;;;;;;;;;;;;;;;;;;4963949;28;19972;-59
2022/11/04 00:59:15;;;;;;;;;;;;;;;;;;4957864;28;19919;-57
2022/11/04 01:01:40;;;;;;;;;;;;;;;;;;4962552;28;19918;-58
2022/11/04 01:04:06;;;;;;;;;;;;;;;;;;4960867;28;19918;-58
2022/11/04 01:06:31;;;;;;;;;;;;;;;;;;4959358;28;19961;-59
2022/11/04 01:08:58;;;;;;;;;;;;;;;;;;4963738;28;19926;-59
2022/11/04 01:11:23;;;;;;;;;;;;;;;;;;4959414;28;19968;-58
2022/11/04 01:13:49;;;;;;;;;;;;;;;;;;4965239;28;19961;-58
2022/11/04 01:16:14;;;;;;;;;;;;;;;;;;4960983;28;19918;-60
2022/11/04 01:18:40;;;;;;;;;;;;;;;;;;4959353;28;19918;-59
2022/11/04 01:21:06;;;;;;;;;;;;;;;;;;4956737;28;20020;-59
2022/11/04 01:23:33;;;;;;;;;;;;;;;;;;4963206;28;19918;-57
2022/11/04 01:25:58;;;;;;;;;;;;;;;;;;4967140;28;19930;-59
2022/11/04 01:28:24;;;;;;;;;;;;;;;;;;4968612;28;20096;-58
2022/11/04 01:30:49;;;;;;;;;;;;;;;;;;4973369;28;20295;-60
2022/11/04 01:33:14;;;;;;;;;;;;;;;;;;4974323;28;19917;-57
2022/11/04 01:35:40;;;;;;;;;;;;;;;;;;4970173;28;19918;-58
2022/11/04 01:38:05;;;;;;;;;;;;;;;;;;4962414;28;19919;-58
2022/11/04 01:40:34;;;;;;;;;;;;;;;;;;4966522;28;19970;-58
2022/11/04 01:42:59;;;;;;;;;;;;;;;;;;4966665;28;19918;-60
2022/11/04 01:45:25;;;;;;;;;;;;;;;;;;4967915;28;20407;-58
2022/11/04 01:47:58;;;;;;;;;;;;;;;;;;4966361;28;19976;-58
2022/11/04 01:50:25;;;;;;;;;;;;;;;;;;4971399;28;19918;-60
2022/11/04 01:53:15;;;;;;;;;;;;;;;;;;4966027;28;19987;-59
2022/11/04 01:55:46;;;;;;;;;;;;;;;;;;4961843;28;19918;-60
2022/11/04 01:58:13;;;;;;;;;;;;;;;;;;4963555;28;19918;-58
2022/11/04 02:00:39;;;;;;;;;;;;;;;;;;4971069;28;19953;-59
2022/11/04 02:03:09;;;;;;;;;;;;;;;;;;4964798;28;19969;-59
2022/11/04 02:05:35;;;;;;;;;;;;;;;;;;4964283;28;19918;-59
2022/11/04 02:08:02;;;;;;;;;;;;;;;;;;4976268;28;19975;-58
2022/11/04 02:10:29;;;;;;;;;;;;;;;;;;4971407;28;19945;-58
2022/11/04 02:12:55;;;;;;;;;;;;;;;;;;4967297;28;19969;-59
2022/11/04 02:15:39;;;;;;;;;;;;;;;;;;4974384;28;19925;-59
2022/11/04 02:18:09;;;;;;;;;;;;;;;;;;4959636;28;19918;-58
2022/11/04 02:20:50;;;;;;;;;;;;;;;;;;4974355;28;20383;-59
2022/11/04 02:23:21;;;;;;;;;;;;;;;;;;4976663;28;20459;-61
2022/11/04 02:25:58;;;;;;;;;;;;;;;;;;4966501;28;20009;-58
2022/11/04 02:28:45;;;;;;;;;;;;;;;;;;4955320;28;19923;-59
2022/11/04 02:31:17;;;;;;;;;;;;;;;;;;4964896;28;19925;-58
2022/11/04 02:33:49;;;;;;;;;;;;;;;;;;4960526;28;19927;-59
2022/11/04 02:36:20;;;;;;;;;;;;;;;;;;4960842;28;20307;-58
2022/11/04 02:38:56;;;;;;;;;;;;;;;;;;4959043;28;19918;-58
2022/11/04 02:41:39;;;;;;;;;;;;;;;;;;4960816;28;19957;-60
2022/11/04 02:44:15;;;;;;;;;;;;;;;;;;4967096;28;19938;-58
2022/11/04 02:46:58;;;;;;;;;;;;;;;;;;4965164;28;19929;-58
2022/11/04 02:49:31;;;;;;;;;;;;;;;;;;4965373;28;19918;-57
2022/11/04 02:51:56;;;;;;;;;;;;;;;;;;4963448;28;19940;-59
2022/11/04 02:54:28;;;;;;;;;;;;;;;;;;4970286;28;19918;-56
2022/11/04 02:56:54;;;;;;;;;;;;;;;;;;4971188;28;20102;-60
2022/11/04 02:59:40;;;;;;;;;;;;;;;;;;4994215;28;19922;-57
2022/11/04 03:02:07;;;;;;;;;;;;;;;;;;4962676;28;19922;-58
2022/11/04 03:04:36;;;;;;;;;;;;;;;;;;4966767;28;19925;-57
2022/11/04 03:07:02;;;;;;;;;;;;;;;;;;4960858;28;20292;-57
2022/11/04 03:09:28;;;;;;;;;;;;;;;;;;4966231;28;19925;-58
2022/11/04 03:12:01;;;;;;;;;;;;;;;;;;4964916;28;19926;-57
2022/11/04 03:14:29;;;;;;;;;;;;;;;;;;4967568;28;20017;-59
2022/11/04 03:17:00;;;;;;;;;;;;;;;;;;4972160;28;19917;-56
2022/11/04 03:19:39;;;;;;;;;;;;;;;;;;4965082;28;19926;-57
2022/11/04 03:22:08;;;;;;;;;;;;;;;;;;4964608;28;19921;-58
2022/11/04 03:24:33;;;;;;;;;;;;;;;;;;4960458;28;19926;-59
2022/11/04 03:26:58;;;;;;;;;;;;;;;;;;4961768;28;19930;-59
2022/11/04 03:29:44;;;;;;;;;;;;;;;;;;4971423;28;20432;-57
2022/11/04 03:32:09;;;;;;;;;;;;;;;;;;4962663;28;19956;-57
2022/11/04 03:34:35;;;;;;;;;;;;;;;;;;4969961;28;20327;-58
2022/11/04 03:37:01;;;;;;;;;;;;;;;;;;4961152;28;20371;-58
2022/11/04 03:39:26;;;;;;;;;;;;;;;;;;4966405;28;19975;-56
2022/11/04 03:41:54;;;;;;;;;;;;;;;;;;4966503;28;20304;-57
2022/11/04 03:44:19;;;;;;;;;;;;;;;;;;4962915;28;19926;-55
2022/11/04 03:46:44;;;;;;;;;;;;;;;;;;4968229;28;19925;-56
2022/11/04 03:49:10;;;;;;;;;;;;;;;;;;4958610;28;19933;-57
2022/11/04 03:51:35;;;;;;;;;;;;;;;;;;4964973;28;19926;-56
2022/11/04 03:54:01;;;;;;;;;;;;;;;;;;4967084;28;20494;-57
2022/11/04 03:56:44;;;;;;;;;;;;;;;;;;4958487;28;19919;-59
2022/11/04 03:59:20;;;;;;;;;;;;;;;;;;4956972;28;19934;-58
2022/11/04 04:01:54;;;;;;;;;;;;;;;;;;4960946;28;20372;-58
2022/11/04 04:04:38;;;;;;;;;;;;;;;;;;4962621;28;20460;-59
2022/11/04 04:07:12;;;;;;;;;;;;;;;;;;4960857;28;19929;-56
2022/11/04 04:09:39;;;;;;;;;;;;;;;;;;4960453;28;19918;-57
2022/11/04 04:12:24;;;;;;;;;;;;;;;;;;4961978;28;19918;-57
2022/11/04 04:14:50;;;;;;;;;;;;;;;;;;4959311;28;19989;-58
2022/11/04 04:17:15;;;;;;;;;;;;;;;;;;4963397;28;19925;-59
2022/11/04 04:19:43;;;;;;;;;;;;;;;;;;4970568;28;19918;-58
2022/11/04 04:22:11;;;;;;;;;;;;;;;;;;4964386;28;19982;-57
2022/11/04 04:27:32;;;;;;;;;;;;;;;;;;4974834;28;20029;-58
2022/11/04 04:30:03;;;;;;;;;;;;;;;;;;4961451;28;19933;-58
2022/11/04 04:32:31;;;;;;;;;;;;;;;;;;4957549;28;19936;-59
2022/11/04 04:37:41;;;;;;;;;;;;;;;;;;4964787;28;19933;-57
2022/11/04 04:44:58;;;;;;;;;;;;;;;;;;4967870;28;19929;-58
2022/11/04 04:45:48;;;;;;;;;;;;;;;;;;4971542;28;19918;-57
2022/11/04 04:48:13;;;;;;;;;;;;;;;;;;4973660;28;19926;-56
2022/11/04 04:50:44;;;;;;;;;;;;;;;;;;4966772;28;19922;-55
2022/11/04 04:53:10;;;;;;;;;;;;;;;;;;4969686;28;19922;-56
2022/11/04 04:55:35;;;;;;;;;;;;;;;;;;4970012;28;19924;-55
2022/11/04 04:58:00;;;;;;;;;;;;;;;;;;4970681;28;19973;-57
2022/11/04 05:00:25;;;;;;;;;;;;;;;;;;4967456;28;19926;-56
2022/11/04 05:02:51;;;;;;;;;;;;;;;;;;4970784;28;19922;-59
2022/11/04 05:05:17;;;;;;;;;;;;;;;;;;4965287;28;19918;-56
2022/11/04 05:07:42;;;;;;;;;;;;;;;;;;4974490;28;19923;-57
2022/11/04 05:10:09;;;;;;;;;;;;;;;;;;4968104;28;19971;-58
2022/11/04 05:15:19;;;;;;;;;;;;;;;;;;4984618;28;19928;-56
2022/11/04 05:17:44;;;;;;;;;;;;;;;;;;4973747;28;19918;-58
2022/11/04 05:20:10;;;;;;;;;;;;;;;;;;4971761;28;20440;-58
2022/11/04 05:22:35;;;;;;;;;;;;;;;;;;4964725;28;19949;-58
2022/11/04 05:25:00;;;;;;;;;;;;;;;;;;4973746;28;19925;-56
2022/11/04 05:27:25;;;;;;;;;;;;;;;;;;4973927;28;19922;-58
2022/11/04 05:29:51;;;;;;;;;;;;;;;;;;4972227;28;19926;-57
2022/11/04 05:32:16;;;;;;;;;;;;;;;;;;4977149;28;20348;-59
2022/11/04 05:34:41;;;;;;;;;;;;;;;;;;4997767;28;19913;-56
2022/11/04 05:37:07;;;;;;;;;;;;;;;;;;4975284;28;19922;-56
2022/11/04 05:39:32;;;;;;;;;;;;;;;;;;4962249;28;20299;-59
2022/11/04 05:41:58;;;;;;;;;;;;;;;;;;4971292;28;19948;-56
2022/11/04 05:44:23;;;;;;;;;;;;;;;;;;4972131;28;19957;-58
2022/11/04 05:46:49;;;;;;;;;;;;;;;;;;4968009;28;19943;-56
2022/11/04 05:49:14;;;;;;;;;;;;;;;;;;4963291;28;19925;-55
2022/11/04 05:51:39;;;;;;;;;;;;;;;;;;4977479;28;19918;-57
2022/11/04 05:54:04;;;;;;;;;;;;;;;;;;4956532;28;19945;-61
2022/11/04 05:56:30;;;;;;;;;;;;;;;;;;4970295;28;19964;-58
2022/11/04 05:58:55;;;;;;;;;;;;;;;;;;4971273;28;19967;-59
2022/11/04 06:01:23;;;;;;;;;;;;;;;;;;4958525;28;20005;-59
2022/11/04 06:03:48;;;;;;;;;;;;;;;;;;4970552;28;19918;-59
2022/11/04 06:06:14;;;;;;;;;;;;;;;;;;4973674;28;19967;-59
2022/11/04 06:08:40;;;;;;;;;;;;;;;;;;4974530;28;20425;-59
2022/11/04 06:11:05;;;;;;;;;;;;;;;;;;4969892;28;19918;-61
2022/11/04 06:13:30;;;;;;;;;;;;;;;;;;4966574;28;19922;-60
2022/11/04 06:15:56;;;;;;;;;;;;;;;;;;4969760;28;20399;-61
2022/11/04 06:18:21;;;;;;;;;;;;;;;;;;4977946;28;19918;-59
2022/11/04 06:20:46;;;;;;;;;;;;;;;;;;4973744;28;19918;-61
2022/11/04 06:23:11;;;;;;;;;;;;;;;;;;4972616;28;19922;-60
2022/11/04 06:25:37;;;;;;;;;;;;;;;;;;4967345;28;19918;-62
2022/11/04 06:28:02;;;;;;;;;;;;;;;;;;4970108;28;19921;-62
2022/11/04 06:30:27;;;;;;;;;;;;;;;;;;4971503;28;19926;-59
2022/11/04 06:32:53;;;;;;;;;;;;;;;;;;4971212;28;20048;-60
2022/11/04 06:35:18;;;;;;;;;;;;;;;;;;4972752;28;20712;-60
2022/11/04 06:37:43;;;;;;;;;;;;;;;;;;4964875;28;19918;-60
2022/11/04 06:40:08;;;;;;;;;;;;;;;;;;4969667;28;19922;-59
2022/11/04 06:42:34;;;;;;;;;;;;;;;;;;4969307;28;19922;-61
2022/11/04 06:44:59;;;;;;;;;;;;;;;;;;4984660;28;20374;-61
2022/11/04 06:47:24;;;;;;;;;;;;;;;;;;4972214;28;19980;-60
2022/11/04 06:49:50;;;;;;;;;;;;;;;;;;4966683;28;19918;-60
2022/11/04 06:52:15;;;;;;;;;;;;;;;;;;4977586;28;19972;-60
2022/11/04 06:54:40;;;;;;;;;;;;;;;;;;4970800;28;20001;-61
2022/11/04 06:57:05;;;;;;;;;;;;;;;;;;4966815;28;20272;-61
2022/11/04 06:59:31;;;;;;;;;;;;;;;;;;4970054;28;19963;-60
2022/11/04 07:01:56;;;;;;;;;;;;;;;;;;4971923;28;19918;-61
2022/11/04 07:04:21;;;;;;;;;;;;;;;;;;4956001;28;19925;-60
2022/11/04 07:06:47;;;;;;;;;;;;;;;;;;4962125;28;19930;-60
2022/11/04 07:09:13;;;;;;;;;;;;;;;;;;4980906;28;19923;-61
2022/11/04 07:11:39;;;;;;;;;;;;;;;;;;4971772;28;19917;-59
2022/11/04 07:14:04;;;;;;;;;;;;;;;;;;4971275;28;20052;-60
2022/11/04 07:16:29;;;;;;;;;;;;;;;;;;4966617;28;20297;-60
2022/11/04 07:18:54;;;;;;;;;;;;;;;;;;4966112;28;20283;-62
2022/11/04 07:21:20;;;;;;;;;;;;;;;;;;4968456;28;19966;-59
2022/11/04 07:23:45;;;;;;;;;;;;;;;;;;4973815;28;19922;-60
2022/11/04 07:26:11;;;;;;;;;;;;;;;;;;4965545;28;19918;-61
2022/11/04 07:28:38;;;;;;;;;;;;;;;;;;4963180;28;19922;-62
2022/11/04 07:31:04;;;;;;;;;;;;;;;;;;4974763;28;20291;-59
2022/11/04 07:33:31;;;;;;;;;;;;;;;;;;4989520;28;19926;-60
2022/11/04 07:35:56;;;;;;;;;;;;;;;;;;4961194;28;20039;-61
2022/11/04 07:38:22;;;;;;;;;;;;;;;;;;4967722;28;20409;-60
2022/11/04 07:40:47;;;;;;;;;;;;;;;;;;4969582;28;19964;-60
2022/11/04 07:43:13;;;;;;;;;;;;;;;;;;4977468;28;19918;-60
2022/11/04 07:45:38;;;;;;;;;;;;;;;;;;4976500;28;20588;-60
2022/11/04 07:48:03;;;;;;;;;;;;;;;;;;4970325;28;20401;-61
2022/11/04 07:50:29;;;;;;;;;;;;;;;;;;4972387;28;19926;-61
2022/11/04 07:52:54;;;;;;;;;;;;;;;;;;4972076;28;19914;-60
2022/11/04 07:55:19;;;;;;;;;;;;;;;;;;4971084;28;19963;-60
2022/11/04 07:57:45;;;;;;;;;;;;;;;;;;4975959;28;19918;-60
2022/11/04 08:00:11;;;;;;;;;;;;;;;;;;4961039;28;20303;-60
2022/11/04 08:02:36;;;;;;;;;;;;;;;;;;4957752;28;19918;-60
2022/11/04 08:05:02;;;;;;;;;;;;;;;;;;4962577;28;19932;-60
2022/11/04 08:07:27;;;;;;;;;;;;;;;;;;4963526;28;20100;-62
2022/11/04 08:09:52;;;;;;;;;;;;;;;;;;4969040;28;19914;-62
2022/11/04 08:12:19;;;;;;;;;;;;;;;;;;4956428;28;19945;-62
2022/11/04 08:14:45;;;;;;;;;;;;;;;;;;4962248;28;19918;-62
2022/11/04 08:17:10;;;;;;;;;;;;;;;;;;4965558;28;19921;-61
2022/11/04 08:19:35;;;;;;;;;;;;;;;;;;4973483;28;20446;-60
2022/11/04 08:22:00;;;;;;;;;;;;;;;;;;4970352;28;19914;-60
2022/11/04 08:24:26;;;;;;;;;;;;;;;;;;4958044;28;19926;-62
2022/11/04 08:26:51;;;;;;;;;;;;;;;;;;4967703;28;19926;-61
2022/11/04 08:29:16;;;;;;;;;;;;;;;;;;4966486;28;19960;-60
2022/11/04 08:31:42;;;;;;;;;;;;;;;;;;4963132;28;19915;-62
2022/11/04 08:34:07;;;;;;;;;;;;;;;;;;4967453;28;19922;-62
2022/11/04 08:36:35;;;;;;;;;;;;;;;;;;4973226;28;19926;-60
2022/11/04 08:39:03;;;;;;;;;;;;;;;;;;4968100;28;19921;-61
2022/11/04 08:41:29;;;;;;;;;;;;;;;;;;4970143;28;19956;-62
2022/11/04 08:44:03;;;;;;;;;;;;;;;;;;4976737;28;19948;-60
2022/11/04 08:46:30;;;;;;;;;;;;;;;;;;4974498;28;19914;-60
2022/11/04 08:48:56;;;;;;;;;;;;;;;;;;4970376;28;19971;-59
2022/11/04 08:51:23;;;;;;;;;;;;;;;;;;4966612;28;19919;-62
2022/11/04 08:53:48;;;;;;;;;;;;;;;;;;4971220;28;19918;-61
2022/11/04 08:56:40;;;;;;;;;;;;;;;;;;4967118;28;20333;-61
2022/11/04 08:59:05;;;;;;;;;;;;;;;;;;4963060;28;19918;-61
2022/11/04 09:01:32;;;;;;;;;;;;;;;;;;4968705;28;19918;-59
2022/11/04 09:03:57;;;;;;;;;;;;;;;;;;4962802;28;19922;-60
2022/11/04 09:06:24;;;;;;;;;;;;;;;;;;4968847;28;19918;-58
2022/11/04 09:08:50;;;;;;;;;;;;;;;;;;4980685;28;19929;-61
2022/11/04 09:11:15;;;;;;;;;;;;;;;;;;4984436;28;20296;-61
2022/11/04 09:13:41;;;;;;;;;;;;;;;;;;4967456;28;20281;-59
2022/11/04 09:16:07;;;;;;;;;;;;;;;;;;4970843;28;19922;-60
2022/11/04 09:18:32;;;;;;;;;;;;;;;;;;4978302;28;19967;-53
2022/11/04 09:21:02;;;;;;;;;;;;;;;;;;4966215;28;19957;-59
2022/11/04 09:23:28;;;;;;;;;;;;;;;;;;4974536;28;19964;-59
2022/11/04 09:25:55;;;;;;;;;;;;;;;;;;4962485;28;19969;-60
2022/11/04 09:28:21;;;;;;;;;;;;;;;;;;4988052;28;19972;-61
2022/11/04 09:30:46;;;;;;;;;;;;;;;;;;4969311;28;19949;-61
2022/11/04 09:33:11;;;;;;;;;;;;;;;;;;4970379;28;19941;-59
2022/11/04 09:35:37;;;;;;;;;;;;;;;;;;4970126;28;19941;-59
2022/11/04 09:38:02;;;;;;;;;;;;;;;;;;4969543;28;19922;-59
2022/11/04 09:40:28;;;;;;;;;;;;;;;;;;4971882;28;19919;-60
2022/11/04 09:43:12;;;;;;;;;;;;;;;;;;4975222;28;19926;-59
2022/11/04 09:45:38;;;;;;;;;;;;;;;;;;4965872;28;20005;-58
2022/11/04 09:48:06;;;;;;;;;;;;;;;;;;4970850;28;19993;-58
2022/11/04 09:50:37;;;;;;;;;;;;;;;;;;4966170;28;19927;-58
2022/11/04 09:53:16;;;;;;;;;;;;;;;;;;4969435;28;19925;-60
2022/11/04 09:56:02;;;;;;;;;;;;;;;;;;4975677;28;19963;-59
2022/11/04 09:58:29;;;;;;;;;;;;;;;;;;4972813;28;19962;-59
2022/11/04 10:01:14;;;;;;;;;;;;;;;;;;4971013;28;19926;-58
2022/11/04 10:03:59;;;;;;;;;;;;;;;;;;4968130;28;20544;-60
2022/11/04 10:06:39;;;;;;;;;;;;;;;;;;4968054;28;19923;-60
2022/11/04 10:09:23;;;;;;;;;;;;;;;;;;4960645;28;19918;-60
2022/11/04 10:11:58;;;;;;;;;;;;;;;;;;4967362;28;19997;-61
2022/11/04 10:14:23;;;;;;;;;;;;;;;;;;4967116;28;19913;-60
2022/11/04 10:16:57;;;;;;;;;;;;;;;;;;4966096;28;19933;-59
2022/11/04 10:19:41;;;;;;;;;;;;;;;;;;4965142;28;19987;-61
2022/11/04 10:22:15;;;;;;;;;;;;;;;;;;4971678;28;19958;-61
2022/11/04 10:25:03;;;;;;;;;;;;;;;;;;4960351;28;19922;-59
2022/11/04 10:27:30;;;;;;;;;;;;;;;;;;4967697;28;20404;-61
2022/11/04 10:29:58;;;;;;;;;;;;;;;;;;4960935;28;19919;-61
2022/11/04 10:32:37;;;;;;;;;;;;;;;;;;4960386;28;19945;-59
2022/11/04 10:35:20;;;;;;;;;;;;;;;;;;4966612;28;19925;-59
2022/11/04 10:37:47;;;;;;;;;;;;;;;;;;4980441;28;20797;-60
2022/11/04 10:40:35;;;;;;;;;;;;;;;;;;4969522;28;19918;-61
2022/11/04 10:43:03;;;;;;;;;;;;;;;;;;4966451;28;19918;-60
2022/11/04 10:45:55;;;;;;;;;;;;;;;;;;4968291;28;20450;-60
2022/11/04 10:48:34;;;;;;;;;;;;;;;;;;4981697;28;19954;-59
2022/11/04 10:50:59;;;;;;;;;;;;;;;;;;4965067;28;20372;-59
2022/11/04 10:53:25;;;;;;;;;;;;;;;;;;4973659;28;20020;-61
2022/11/04 10:55:55;;;;;;;;;;;;;;;;;;4975884;28;19921;-61
2022/11/04 10:58:25;;;;;;;;;;;;;;;;;;4973519;28;20002;-62
2022/11/04 11:00:51;;;;;;;;;;;;;;;;;;4977404;28;20311;-59
2022/11/04 11:03:30;;;;;;;;;;;;;;;;;;4974251;28;19919;-61
2022/11/04 11:06:16;;;;;;;;;;;;;;;;;;4974668;28;19914;-60
2022/11/04 11:08:42;;;;;;;;;;;;;;;;;;4966661;28;19922;-60
2022/11/04 11:11:08;;;;;;;;;;;;;;;;;;4975803;28;19922;-62
2022/11/04 11:13:35;;;;;;;;;;;;;;;;;;4976274;28;19920;-60
2022/11/04 11:16:17;;;;;;;;;;;;;;;;;;4972640;28;19918;-59
2022/11/04 11:18:42;;;;;;;;;;;;;;;;;;4971997;28;19972;-60
2022/11/04 11:21:09;;;;;;;;;;;;;;;;;;4968321;28;19921;-59
2022/11/04 11:23:37;;;;;;;;;;;;;;;;;;4962931;28;20885;-62
2022/11/04 11:26:25;;;;;;;;;;;;;;;;;;4962257;28;19924;-61
2022/11/04 11:28:55;;;;;;;;;;;;;;;;;;4958193;28;20499;-60
2022/11/04 11:31:23;;;;;;;;;;;;;;;;;;4961465;28;19922;-62
2022/11/04 11:33:54;;;;;;;;;;;;;;;;;;4965045;28;19918;-61
2022/11/04 11:36:20;;;;;;;;;;;;;;;;;;4961588;28;19922;-61
2022/11/04 11:38:54;;;;;;;;;;;;;;;;;;4963250;28;19942;-60
2022/11/04 11:41:22;;;;;;;;;;;;;;;;;;4961810;28;19922;-60
2022/11/04 11:43:51;;;;;;;;;;;;;;;;;;4964871;28;19942;-61
2022/11/04 11:46:36;;;;;;;;;;;;;;;;;;4966125;28;19918;-60
2022/11/04 11:49:02;;;;;;;;;;;;;;;;;;4965157;28;20350;-61
2022/11/04 11:51:31;;;;;;;;;;;;;;;;;;4958547;28;19943;-60
2022/11/04 11:54:16;;;;;;;;;;;;;;;;;;4966453;28;20495;-59
2022/11/04 11:56:45;;;;;;;;;;;;;;;;;;4966529;28;19918;-61
2022/11/04 11:59:34;;;;;;;;;;;;;;;;;;4966916;28;20400;-61
2022/11/04 12:02:14;;;;;;;;;;;;;;;;;;4964340;28;19922;-61
2022/11/04 12:04:40;;;;;;;;;;;;;;;;;;4967446;28;19918;-60
2022/11/04 12:07:20;;;;;;;;;;;;;;;;;;4959872;28;19946;-59
2022/11/04 12:09:53;;;;;;;;;;;;;;;;;;4962428;28;19920;-59
2022/11/04 12:12:24;;;;;;;;;;;;;;;;;;4963685;28;19919;-58
2022/11/04 12:15:03;;;;;;;;;;;;;;;;;;4966173;28;19962;-57
2022/11/04 12:17:38;;;;;;;;;;;;;;;;;;4963672;28;19940;-59
2022/11/04 12:20:22;;;;;;;;;;;;;;;;;;4963181;28;19929;-61
2022/11/04 12:22:58;;;;;;;;;;;;;;;;;;4960821;28;19918;-59
2022/11/04 12:25:36;;;;;;;;;;;;;;;;;;4965808;28;19948;-61
2022/11/04 12:28:04;;;;;;;;;;;;;;;;;;4959692;28;19976;-59
2022/11/04 12:30:33;;;;;;;;;;;;;;;;;;4965239;28;19926;-61
2022/11/04 12:33:25;;;;;;;;;;;;;;;;;;4967084;28;19922;-61
2022/11/04 12:36:01;;;;;;;;;;;;;;;;;;4966851;28;19926;-62
2022/11/04 12:38:45;;;;;;;;;;;;;;;;;;4967812;28;19925;-59
2022/11/04 12:41:10;;;;;;;;;;;;;;;;;;4963743;28;20575;-60
2022/11/04 12:43:55;;;;;;;;;;;;;;;;;;4962804;28;19919;-60
2022/11/04 12:46:20;;;;;;;;;;;;;;;;;;4959736;28;19925;-61
2022/11/04 12:48:57;;;;;;;;;;;;;;;;;;4964656;28;19930;-62
2022/11/04 12:51:33;;;;;;;;;;;;;;;;;;4961059;28;19925;-59
2022/11/04 12:54:11;;;;;;;;;;;;;;;;;;4991815;28;19922;-59
2022/11/04 12:56:37;;;;;;;;;;;;;;;;;;4964959;28;19918;-60
2022/11/04 12:59:09;;;;;;;;;;;;;;;;;;4962492;28;19918;-61
2022/11/04 13:01:40;;;;;;;;;;;;;;;;;;4970354;28;20394;-61
2022/11/04 13:04:05;;;;;;;;;;;;;;;;;;4961234;28;19918;-59
2022/11/04 13:06:37;;;;;;;;;;;;;;;;;;4970814;28;19925;-61
2022/11/04 13:09:07;;;;;;;;;;;;;;;;;;4968573;28;19918;-59
2022/11/04 13:11:32;;;;;;;;;;;;;;;;;;4968794;28;19918;-60
2022/11/04 13:14:01;;;;;;;;;;;;;;;;;;4972608;28;20281;-60
2022/11/04 13:16:27;;;;;;;;;;;;;;;;;;4967848;28;20021;-62
2022/11/04 13:18:52;;;;;;;;;;;;;;;;;;4966769;28;19922;-60
2022/11/04 13:21:23;;;;;;;;;;;;;;;;;;4977862;28;20307;-61
2022/11/04 13:23:56;;;;;;;;;;;;;;;;;;4975109;28;19918;-61
2022/11/04 13:26:22;;;;;;;;;;;;;;;;;;4978886;28;20299;-61
2022/11/04 13:28:55;;;;;;;;;;;;;;;;;;4974306;28;19929;-60
2022/11/04 13:31:30;;;;;;;;;;;;;;;;;;4967340;28;20487;-60
2022/11/04 13:34:05;;;;;;;;;;;;;;;;;;4975554;28;19919;-60
2022/11/04 13:36:40;;;;;;;;;;;;;;;;;;4982584;28;20315;-60
2022/11/04 13:39:06;;;;;;;;;;;;;;;;;;4961624;28;20392;-60
2022/11/04 13:41:40;;;;;;;;;;;;;;;;;;4962477;28;19922;-60
2022/11/04 13:44:28;;;;;;;;;;;;;;;;;;4965222;28;19918;-60
2022/11/04 13:46:56;;;;;;;;;;;;;;;;;;4955408;28;20010;-60
2022/11/04 13:49:29;;;;;;;;;;;;;;;;;;4962720;28;20012;-59
2022/11/04 13:52:08;;;;;;;;;;;;;;;;;;4968445;28;20339;-60
2022/11/04 13:54:40;;;;;;;;;;;;;;;;;;4970262;28;19941;-60
2022/11/04 13:57:05;;;;;;;;;;;;;;;;;;4966133;28;19922;-60
2022/11/04 13:59:31;;;;;;;;;;;;;;;;;;4967129;28;20524;-60
2022/11/04 14:02:15;;;;;;;;;;;;;;;;;;4968306;28;20334;-60
2022/11/04 14:04:42;;;;;;;;;;;;;;;;;;4962438;28;19941;-60
2022/11/04 14:07:09;;;;;;;;;;;;;;;;;;4968214;28;20592;-60
2022/11/04 14:09:40;;;;;;;;;;;;;;;;;;4968908;28;19922;-60
2022/11/04 14:12:16;;;;;;;;;;;;;;;;;;4962597;28;19925;-60
2022/11/04 14:14:51;;;;;;;;;;;;;;;;;;4961820;28;20524;-60
2022/11/04 14:17:32;;;;;;;;;;;;;;;;;;4965701;28;19926;-60
2022/11/04 14:20:10;;;;;;;;;;;;;;;;;;4962657;28;20009;-59
2022/11/04 14:22:41;;;;;;;;;;;;;;;;;;4965630;28;19964;-60
2022/11/04 14:25:22;;;;;;;;;;;;;;;;;;4978309;28;19917;-59
2022/11/04 14:27:48;;;;;;;;;;;;;;;;;;4962151;28;19934;-59
2022/11/04 14:30:34;;;;;;;;;;;;;;;;;;4972805;28;20034;-59
2022/11/04 14:33:02;;;;;;;;;;;;;;;;;;4964192;28;20315;-60
2022/11/04 14:35:28;;;;;;;;;;;;;;;;;;4969256;28;20410;-59
2022/11/04 14:37:53;;;;;;;;;;;;;;;;;;4966709;28;19914;-59
2022/11/04 14:40:24;;;;;;;;;;;;;;;;;;4964274;28;20070;-59
2022/11/04 14:42:51;;;;;;;;;;;;;;;;;;4966198;28;20017;-59
2022/11/04 14:45:19;;;;;;;;;;;;;;;;;;4965734;28;19968;-60
2022/11/04 14:47:50;;;;;;;;;;;;;;;;;;4965306;28;19945;-59
2022/11/04 14:50:33;;;;;;;;;;;;;;;;;;4969469;28;20299;-60
2022/11/04 14:53:04;;;;;;;;;;;;;;;;;;4967711;28;19922;-60
2022/11/04 14:55:30;;;;;;;;;;;;;;;;;;4962106;28;20313;-59
2022/11/04 14:57:56;;;;;;;;;;;;;;;;;;4971473;28;20396;-60
2022/11/04 15:00:28;;;;;;;;;;;;;;;;;;4972117;28;19918;-60
2022/11/04 15:03:02;;;;;;;;;;;;;;;;;;4968229;28;19918;-60
2022/11/04 15:05:28;;;;;;;;;;;;;;;;;;4963899;28;19926;-63
2022/11/04 15:07:54;;;;;;;;;;;;;;;;;;4962318;28;19981;-62
2022/11/04 15:10:19;;;;;;;;;;;;;;;;;;4964767;28;19929;-62
2022/11/04 15:12:51;;;;;;;;;;;;;;;;;;4969606;28;19918;-61
2022/11/04 15:15:40;;;;;;;;;;;;;;;;;;4961318;28;20037;-61
2022/11/04 15:18:12;;;;;;;;;;;;;;;;;;4960856;28;19982;-61
2022/11/04 15:20:45;;;;;;;;;;;;;;;;;;4966496;28;19922;-58
2022/11/04 15:23:13;;;;;;;;;;;;;;;;;;4960214;28;20012;-61
2022/11/04 15:25:48;;;;;;;;;;;;;;;;;;4967922;28;19922;-61
2022/11/04 15:28:21;;;;;;;;;;;;;;;;;;4964618;28;20403;-60
2022/11/04 15:31:04;;;;;;;;;;;;;;;;;;4971853;28;19919;-60
2022/11/04 15:33:31;;;;;;;;;;;;;;;;;;4963428;28;20295;-60
2022/11/04 15:35:57;;;;;;;;;;;;;;;;;;4966589;28;20391;-60
2022/11/04 15:38:24;;;;;;;;;;;;;;;;;;4971417;28;19964;-60
2022/11/04 15:40:49;;;;;;;;;;;;;;;;;;4962302;28;19925;-60
2022/11/04 15:43:15;;;;;;;;;;;;;;;;;;4969324;28;20299;-61
2022/11/04 15:45:46;;;;;;;;;;;;;;;;;;4966363;28;20017;-62
2022/11/04 15:48:32;;;;;;;;;;;;;;;;;;4971455;28;19921;-61
2022/11/04 15:51:00;;;;;;;;;;;;;;;;;;4961785;28;19918;-63
2022/11/04 15:53:26;;;;;;;;;;;;;;;;;;4966343;28;19926;-62
2022/11/04 15:55:51;;;;;;;;;;;;;;;;;;4961070;28;19929;-62
2022/11/04 15:58:17;;;;;;;;;;;;;;;;;;4965003;28;19919;-62
2022/11/04 16:00:50;;;;;;;;;;;;;;;;;;4961527;28;19952;-62
2022/11/04 16:03:19;;;;;;;;;;;;;;;;;;4963523;28;20299;-61
2022/11/04 16:05:58;;;;;;;;;;;;;;;;;;4969271;28;20395;-61
2022/11/04 16:08:27;;;;;;;;;;;;;;;;;;4964681;28;20482;-61
2022/11/04 16:11:07;;;;;;;;;;;;;;;;;;4970758;28;19928;-61
2022/11/04 16:13:32;;;;;;;;;;;;;;;;;;4968185;28;19914;-61
2022/11/04 16:15:57;;;;;;;;;;;;;;;;;;4968459;28;19925;-61
2022/11/04 16:18:34;;;;;;;;;;;;;;;;;;4963832;28;20408;-60
2022/11/04 16:21:02;;;;;;;;;;;;;;;;;;4955117;28;19922;-61
2022/11/04 16:23:28;;;;;;;;;;;;;;;;;;4973153;28;20406;-61
2022/11/04 16:25:57;;;;;;;;;;;;;;;;;;4981264;28;19921;-61
2022/11/04 16:28:22;;;;;;;;;;;;;;;;;;4959595;28;19992;-61
2022/11/04 16:31:01;;;;;;;;;;;;;;;;;;4975720;28;19930;-61
2022/11/04 16:33:27;;;;;;;;;;;;;;;;;;4969106;28;19929;-61
2022/11/04 16:35:52;;;;;;;;;;;;;;;;;;4967886;28;19914;-62
2022/11/04 16:38:18;;;;;;;;;;;;;;;;;;4969803;28;19918;-61
2022/11/04 16:40:45;;;;;;;;;;;;;;;;;;4969923;28;20001;-61
2022/11/04 16:43:10;;;;;;;;;;;;;;;;;;4967933;28;19922;-61
2022/11/04 16:45:37;;;;;;;;;;;;;;;;;;4961927;28;19925;-61
2022/11/04 16:48:02;;;;;;;;;;;;;;;;;;4968151;28;19957;-61
2022/11/04 16:50:30;;;;;;;;;;;;;;;;;;4969003;28;19953;-61
2022/11/04 16:52:56;;;;;;;;;;;;;;;;;;4969327;28;20021;-61
2022/11/04 16:55:22;;;;;;;;;;;;;;;;;;4965455;28;20104;-61
2022/11/04 16:57:49;;;;;;;;;;;;;;;;;;4972829;28;19930;-61
2022/11/04 17:00:19;;;;;;;;;;;;;;;;;;4976151;28;19918;-61
2022/11/04 17:02:45;;;;;;;;;;;;;;;;;;4972059;28;19918;-61
2022/11/04 17:05:11;;;;;;;;;;;;;;;;;;4976310;28;20375;-61
2022/11/04 17:07:37;;;;;;;;;;;;;;;;;;4975535;28;19945;-61
2022/11/04 17:10:14;;;;;;;;;;;;;;;;;;4967663;28;20391;-61
2022/11/04 17:12:39;;;;;;;;;;;;;;;;;;4964383;28;19937;-62
2022/11/04 17:15:05;;;;;;;;;;;;;;;;;;4964888;28;19923;-61
2022/11/04 17:17:30;;;;;;;;;;;;;;;;;;4960751;28;20402;-61
2022/11/04 17:19:55;;;;;;;;;;;;;;;;;;4965427;28;19925;-61
2022/11/04 17:22:21;;;;;;;;;;;;;;;;;;4958535;28;19940;-61
2022/11/04 17:24:46;;;;;;;;;;;;;;;;;;4967728;28;20005;-61
2022/11/04 17:27:12;;;;;;;;;;;;;;;;;;4967053;28;19929;-61
2022/11/04 17:29:37;;;;;;;;;;;;;;;;;;4967183;28;19986;-61